createdAt,value
2019-03-11T00:00:28.762Z,1.00
2019-03-11T00:02:56.100Z,1.42
2019-03-11T00:05:23.374Z,1.15
2019-03-11T00:07:50.662Z,1.22
2019-03-11T00:10:17.939Z,1.15
2019-03-11T00:12:45.230Z,0.88
2019-03-11T00:15:12.523Z,1.30
2019-03-11T00:17:39.786Z,1.22
2019-03-11T00:20:08.035Z,1.17
2019-03-11T00:22:35.479Z,1.02
2019-03-11T00:25:02.752Z,1.62
2019-03-11T00:27:30.024Z,1.30
2019-03-11T00:29:57.310Z,1.40
2019-03-11T00:32:24.575Z,1.50
2019-03-11T00:34:51.989Z,1.55
2019-03-11T00:37:19.299Z,1.47
2019-03-11T00:39:46.956Z,1.05
2019-03-11T00:42:14.274Z,1.95
2019-03-11T00:44:41.575Z,1.85
2019-03-11T00:47:08.917Z,1.12
2019-03-11T00:49:36.231Z,0.95
2019-03-11T00:52:03.496Z,1.20
2019-03-11T00:54:31.103Z,1.77
2019-03-11T00:56:58.391Z,1.35
2019-03-11T00:59:25.687Z,1.52
2019-03-11T01:01:52.974Z,0.90
2019-03-11T01:04:20.239Z,1.47
2019-03-11T01:06:47.637Z,1.55
2019-03-11T01:09:14.918Z,1.60
2019-03-11T01:11:42.201Z,2.00
2019-03-11T01:14:09.990Z,1.87
2019-03-11T01:16:37.356Z,1.10
2019-03-11T01:19:04.647Z,1.22
2019-03-11T01:21:31.922Z,1.27
2019-03-11T01:23:59.208Z,1.32
2019-03-11T01:26:26.488Z,1.42
2019-03-11T01:28:53.778Z,1.42
2019-03-11T01:31:21.039Z,1.32
2019-03-11T01:33:48.326Z,0.72
2019-03-11T01:36:15.590Z,1.00
2019-03-11T01:38:42.875Z,1.05
2019-03-11T01:41:10.168Z,1.27
2019-03-11T01:43:37.498Z,1.12
2019-03-11T01:46:04.781Z,0.80
2019-03-11T01:48:32.057Z,1.47
2019-03-11T01:50:59.348Z,1.42
2019-03-11T01:53:26.637Z,1.17
2019-03-11T01:55:53.929Z,0.98
2019-03-11T01:58:21.219Z,1.20
2019-03-11T02:00:48.798Z,1.02
2019-03-11T02:03:16.086Z,1.75
2019-03-11T02:05:43.381Z,1.42
2019-03-11T02:08:10.740Z,1.70
2019-03-11T02:10:38.135Z,1.20
2019-03-11T02:13:05.503Z,1.37
2019-03-11T02:15:32.796Z,1.10
2019-03-11T02:18:00.119Z,0.70
2019-03-11T02:20:27.404Z,1.15
2019-03-11T02:22:54.675Z,1.00
2019-03-11T02:25:21.968Z,1.05
2019-03-11T02:27:49.259Z,1.42
2019-03-11T02:30:17.260Z,1.67
2019-03-11T02:32:44.961Z,0.98
2019-03-11T02:35:12.379Z,1.12
2019-03-11T02:37:39.815Z,1.00
2019-03-11T02:40:08.678Z,1.00
2019-03-11T02:42:35.984Z,1.20
2019-03-11T02:45:03.523Z,1.27
2019-03-11T02:47:30.835Z,1.32
2019-03-11T02:49:58.116Z,1.62
2019-03-11T02:52:25.381Z,1.87
2019-03-11T02:54:52.671Z,1.20
2019-03-11T02:57:19.950Z,1.25
2019-03-11T02:59:47.235Z,1.00
2019-03-11T03:02:16.270Z,1.25
2019-03-11T03:04:45.461Z,1.20
2019-03-11T03:07:13.022Z,1.22
2019-03-11T03:09:40.301Z,1.70
2019-03-11T03:12:07.658Z,1.37
2019-03-11T03:14:34.934Z,1.00
2019-03-11T03:17:02.200Z,1.70
2019-03-11T03:19:29.565Z,2.17
2019-03-11T03:21:56.835Z,1.17
2019-03-11T03:24:24.143Z,1.87
2019-03-11T03:26:51.426Z,1.62
2019-03-11T03:29:19.276Z,1.15
2019-03-11T03:31:46.552Z,0.90
2019-03-11T03:34:13.872Z,0.80
2019-03-11T03:36:41.201Z,1.37
2019-03-11T03:39:08.670Z,1.30
2019-03-11T03:41:36.399Z,2.02
2019-03-11T03:44:03.741Z,1.55
2019-03-11T03:46:31.096Z,1.02
2019-03-11T03:48:58.360Z,1.10
2019-03-11T03:51:25.668Z,1.47
2019-03-11T03:53:53.033Z,1.50
2019-03-11T03:56:20.416Z,2.25
2019-03-11T03:58:47.770Z,1.57
2019-03-11T04:01:15.096Z,1.60
2019-03-11T04:03:42.600Z,1.32
2019-03-11T04:06:09.948Z,1.42
2019-03-11T04:08:37.323Z,1.50
2019-03-11T04:11:04.686Z,1.40
2019-03-11T04:13:31.966Z,1.70
2019-03-11T04:15:59.258Z,1.60
2019-03-11T04:18:28.084Z,1.70
2019-03-11T04:20:55.448Z,1.17
2019-03-11T04:23:22.785Z,2.02
2019-03-11T04:25:50.161Z,1.80
2019-03-11T04:28:17.610Z,1.30
2019-03-11T04:30:44.947Z,1.72
2019-03-11T04:33:12.231Z,1.45
2019-03-11T04:35:39.534Z,1.70
2019-03-11T04:38:06.893Z,1.40
2019-03-11T04:40:34.175Z,1.80
2019-03-11T04:43:01.459Z,1.80
2019-03-11T04:45:28.732Z,2.12
2019-03-11T04:47:56.091Z,2.37
2019-03-11T04:50:23.412Z,1.42
2019-03-11T04:52:50.871Z,1.35
2019-03-11T04:55:18.309Z,1.85
2019-03-11T04:57:52.840Z,1.40
2019-03-11T05:00:23.888Z,1.15
2019-03-11T05:02:51.209Z,1.60
2019-03-11T05:05:18.668Z,1.95
2019-03-11T05:07:45.958Z,1.30
2019-03-11T05:10:16.194Z,2.05
2019-03-11T05:12:42.722Z,0.53
2019-03-11T05:15:10.791Z,0.70
2019-03-11T05:17:38.114Z,0.70
2019-03-11T05:20:07.137Z,0.78
2019-03-11T05:22:34.446Z,1.35
2019-03-11T05:25:01.798Z,2.33
2019-03-11T05:27:29.081Z,2.22
2019-03-11T05:29:56.400Z,1.87
2019-03-11T05:32:23.741Z,1.92
2019-03-11T05:34:51.267Z,1.75
2019-03-11T05:37:18.631Z,1.92
2019-03-11T05:39:45.917Z,2.65
2019-03-11T05:42:13.187Z,1.75
2019-03-11T05:44:40.837Z,1.72
2019-03-11T05:47:08.171Z,1.50
2019-03-11T05:49:35.431Z,1.65
2019-03-11T05:52:02.867Z,1.50
2019-03-11T05:54:30.227Z,1.65
2019-03-11T05:56:59.097Z,1.25
2019-03-11T05:59:26.651Z,2.00
2019-03-11T06:01:53.960Z,1.65
2019-03-11T06:04:21.247Z,2.27
2019-03-11T06:06:48.534Z,2.42
2019-03-11T06:09:15.834Z,2.25
2019-03-11T06:11:43.110Z,1.62
2019-03-11T06:14:10.467Z,2.17
2019-03-11T06:16:37.730Z,1.87
2019-03-11T06:19:05.070Z,1.98
2019-03-11T06:21:34.006Z,1.77
2019-03-11T06:24:01.341Z,2.08
2019-03-11T06:26:28.635Z,1.90
2019-03-11T06:28:55.901Z,1.95
2019-03-11T06:31:23.181Z,1.60
2019-03-11T06:33:50.544Z,2.20
2019-03-11T06:36:17.828Z,2.05
2019-03-11T06:38:45.114Z,2.45
2019-03-11T06:41:12.420Z,2.40
2019-03-11T06:43:39.765Z,2.05
2019-03-11T06:46:07.450Z,1.57
2019-03-11T06:48:34.767Z,1.70
2019-03-11T06:51:02.176Z,1.82
2019-03-11T06:53:29.437Z,2.40
2019-03-11T06:55:56.718Z,1.77
2019-03-11T06:58:24.004Z,2.12
2019-03-11T07:00:51.287Z,2.12
2019-03-11T07:03:18.589Z,2.42
2019-03-11T07:05:46.129Z,2.02
2019-03-11T07:08:13.642Z,1.85
2019-03-11T07:10:41.103Z,2.02
2019-03-11T07:13:08.696Z,1.65
2019-03-11T07:15:36.410Z,2.55
2019-03-11T07:18:08.058Z,2.00
2019-03-11T07:20:37.074Z,1.60
2019-03-11T07:23:04.470Z,2.10
2019-03-11T07:25:32.019Z,1.80
2019-03-11T07:28:02.265Z,1.45
2019-03-11T07:30:29.678Z,2.27
2019-03-11T07:32:57.058Z,1.45
2019-03-11T07:35:24.460Z,1.87
2019-03-11T07:37:51.894Z,1.85
2019-03-11T07:40:28.951Z,2.80
2019-03-11T07:42:48.633Z,1.60
2019-03-11T07:45:16.626Z,1.90
2019-03-11T07:47:45.182Z,2.08
2019-03-11T07:50:13.523Z,2.62
2019-03-11T07:52:42.465Z,1.85
2019-03-11T07:55:10.979Z,1.72
2019-03-11T07:57:38.363Z,2.30
2019-03-11T08:00:10.040Z,1.87
2019-03-11T08:02:37.661Z,1.77
2019-03-11T08:05:06.328Z,2.30
2019-03-11T08:07:33.610Z,2.30
2019-03-11T08:10:00.994Z,1.47
2019-03-11T08:12:28.290Z,2.08
2019-03-11T08:14:55.559Z,2.58
2019-03-11T08:17:22.901Z,1.87
2019-03-11T08:19:50.202Z,1.87
2019-03-11T08:22:17.480Z,1.80
2019-03-11T08:24:50.773Z,2.00
2019-03-11T08:27:18.080Z,2.45
2019-03-11T08:29:45.920Z,2.17
2019-03-11T08:32:14.960Z,1.82
2019-03-11T08:34:42.293Z,2.27
2019-03-11T08:37:09.637Z,2.30
2019-03-11T08:39:36.914Z,1.72
2019-03-11T08:42:04.214Z,2.17
2019-03-11T08:44:31.534Z,2.42
2019-03-11T08:46:58.817Z,2.25
2019-03-11T08:49:26.159Z,2.22
2019-03-11T08:51:53.598Z,1.50
2019-03-11T08:54:20.879Z,2.67
2019-03-11T08:56:48.146Z,1.90
2019-03-11T08:59:15.443Z,2.95
2019-03-11T09:01:42.720Z,2.42
2019-03-11T09:04:10.074Z,1.82
2019-03-11T09:06:37.387Z,1.85
2019-03-11T09:09:06.031Z,2.37
2019-03-11T09:11:33.662Z,1.90
2019-03-11T09:14:00.974Z,2.50
2019-03-11T09:16:28.288Z,2.22
2019-03-11T09:18:55.651Z,2.62
2019-03-11T09:21:23.086Z,2.20
2019-03-11T09:23:50.544Z,1.87
2019-03-11T09:26:17.828Z,2.35
2019-03-11T09:28:45.093Z,2.05
2019-03-11T09:31:12.555Z,1.90
2019-03-11T09:33:39.815Z,2.20
2019-03-11T09:36:07.198Z,3.08
2019-03-11T09:38:34.476Z,3.00
2019-03-11T09:41:01.767Z,2.15
2019-03-11T09:43:29.103Z,2.27
2019-03-11T09:45:56.393Z,2.22
2019-03-11T09:48:23.676Z,2.67
2019-03-11T09:50:50.964Z,2.37
2019-03-11T09:53:18.251Z,4.08
2019-03-11T09:55:45.526Z,2.55
2019-03-11T09:58:12.829Z,1.92
2019-03-11T10:00:40.090Z,2.25
2019-03-11T10:03:07.387Z,2.60
2019-03-11T10:05:34.648Z,2.22
2019-03-11T10:08:02.035Z,2.47
2019-03-11T10:10:30.152Z,2.92
2019-03-11T10:12:57.435Z,3.00
2019-03-11T10:15:24.770Z,2.95
2019-03-11T10:17:52.035Z,1.98
2019-03-11T10:20:19.989Z,2.20
2019-03-11T10:22:47.254Z,2.98
2019-03-11T10:25:15.427Z,2.77
2019-03-11T10:27:42.698Z,2.80
2019-03-11T10:30:19.941Z,2.35
2019-03-11T10:32:47.682Z,2.37
2019-03-11T10:35:30.791Z,3.10
2019-03-11T10:37:45.329Z,2.85
2019-03-11T10:40:14.084Z,2.85
2019-03-11T10:42:41.507Z,2.08
2019-03-11T10:45:10.239Z,2.77
2019-03-11T10:47:37.541Z,2.25
2019-03-11T10:50:06.430Z,2.25
2019-03-11T10:52:33.789Z,2.08
2019-03-11T10:55:01.119Z,2.42
2019-03-11T10:57:28.504Z,1.77
2019-03-11T10:59:56.030Z,2.02
2019-03-11T11:02:23.307Z,1.70
2019-03-11T11:04:50.593Z,2.15
2019-03-11T11:07:17.867Z,2.47
2019-03-11T11:09:45.201Z,2.45
2019-03-11T11:12:12.454Z,1.80
2019-03-11T11:14:39.839Z,1.35
2019-03-11T11:17:07.191Z,1.80
2019-03-11T11:19:34.443Z,2.58
2019-03-11T11:22:01.747Z,2.40
2019-03-11T11:24:29.086Z,3.00
2019-03-11T11:26:56.486Z,1.90
2019-03-11T11:29:23.928Z,2.40
2019-03-11T11:31:51.212Z,2.33
2019-03-11T11:34:18.473Z,2.47
2019-03-11T11:36:45.760Z,2.83
2019-03-11T11:39:13.214Z,2.77
2019-03-11T11:41:40.506Z,2.52
2019-03-11T11:44:07.763Z,2.37
2019-03-11T11:46:35.037Z,2.40
2019-03-11T11:49:02.301Z,2.75
2019-03-11T11:51:29.591Z,2.30
2019-03-11T11:53:56.914Z,2.50
2019-03-11T11:56:24.173Z,2.47
2019-03-11T11:58:51.467Z,2.75
2019-03-11T12:01:18.734Z,2.17
2019-03-11T12:03:46.037Z,2.15
2019-03-11T12:06:13.434Z,2.02
2019-03-11T12:08:40.715Z,2.90
2019-03-11T12:11:07.971Z,2.27
2019-03-11T12:13:35.259Z,1.82
2019-03-11T12:16:02.630Z,2.10
2019-03-11T12:18:29.967Z,2.10
2019-03-11T12:20:57.258Z,1.95
2019-03-11T12:23:24.530Z,1.95
2019-03-11T12:25:51.805Z,2.45
2019-03-11T12:28:19.129Z,1.72
2019-03-11T12:30:46.502Z,2.25
2019-03-11T12:33:13.761Z,1.82
2019-03-11T12:35:41.045Z,1.32
2019-03-11T12:38:08.390Z,1.35
2019-03-11T12:40:35.775Z,1.90
2019-03-11T12:43:03.279Z,1.62
2019-03-11T12:45:30.614Z,1.75
2019-03-11T12:47:57.926Z,2.00
2019-03-11T12:50:26.159Z,1.47
2019-03-11T12:52:53.451Z,2.77
2019-03-11T12:55:21.540Z,1.40
2019-03-11T12:57:49.188Z,1.85
2019-03-11T13:00:17.438Z,1.20
2019-03-11T13:02:44.701Z,1.42
2019-03-11T13:05:12.351Z,1.92
2019-03-11T13:07:39.914Z,1.60
2019-03-11T13:10:08.734Z,2.20
2019-03-11T13:12:36.067Z,1.82
2019-03-11T13:15:03.826Z,1.55
2019-03-11T13:17:31.109Z,1.57
2019-03-11T13:19:58.632Z,1.80
2019-03-11T13:22:25.914Z,2.27
2019-03-11T13:24:53.174Z,1.70
2019-03-11T13:27:20.456Z,1.75
2019-03-11T13:29:47.925Z,1.42
2019-03-11T13:32:15.220Z,1.82
2019-03-11T13:34:42.503Z,1.95
2019-03-11T13:37:09.816Z,1.75
2019-03-11T13:39:37.157Z,1.87
2019-03-11T13:42:04.960Z,1.70
2019-03-11T13:44:32.266Z,1.42
2019-03-11T13:46:59.555Z,1.92
2019-03-11T13:49:26.824Z,1.75
2019-03-11T13:51:54.150Z,1.35
2019-03-11T13:54:21.497Z,1.25
2019-03-11T13:56:48.866Z,1.87
2019-03-11T13:59:16.432Z,1.60
2019-03-11T14:01:43.725Z,1.60
2019-03-11T14:04:11.088Z,1.65
2019-03-11T14:06:38.420Z,2.22
2019-03-11T14:09:05.873Z,1.22
2019-03-11T14:11:33.129Z,1.40
2019-03-11T14:14:00.576Z,1.75
2019-03-11T14:16:28.014Z,1.17
2019-03-11T14:18:55.370Z,1.65
2019-03-11T14:21:25.913Z,1.47
2019-03-11T14:23:51.655Z,1.27
2019-03-11T14:26:18.914Z,1.62
2019-03-11T14:28:46.214Z,2.37
2019-03-11T14:31:13.495Z,1.77
2019-03-11T14:33:40.837Z,1.60
2019-03-11T14:36:09.626Z,1.62
2019-03-11T14:38:36.908Z,1.80
2019-03-11T14:41:04.254Z,2.45
2019-03-11T14:43:31.546Z,1.35
2019-03-11T14:45:58.810Z,1.67
2019-03-11T14:48:26.073Z,1.82
2019-03-11T14:50:55.080Z,2.27
2019-03-11T14:53:22.798Z,1.70
2019-03-11T14:55:51.928Z,2.80
2019-03-11T14:58:29.020Z,1.77
2019-03-11T15:00:51.942Z,1.80
2019-03-11T15:03:19.333Z,2.22
2019-03-11T15:05:46.841Z,1.70
2019-03-11T15:08:17.324Z,2.00
2019-03-11T15:10:46.918Z,2.22
2019-03-11T15:13:13.918Z,1.98
2019-03-11T15:15:41.356Z,1.82
2019-03-11T15:18:10.319Z,1.92
2019-03-11T15:20:40.882Z,2.35
2019-03-11T15:23:20.338Z,1.70
2019-03-11T15:25:40.204Z,2.42
2019-03-11T15:28:10.466Z,2.20
2019-03-11T15:30:39.519Z,2.35
2019-03-11T15:33:07.116Z,2.42
2019-03-11T15:35:34.497Z,2.30
2019-03-11T15:38:01.768Z,2.08
2019-03-11T15:40:29.046Z,2.00
2019-03-11T15:42:56.306Z,1.45
2019-03-11T15:45:23.664Z,2.37
2019-03-11T15:47:51.113Z,1.77
2019-03-11T15:50:31.439Z,2.12
2019-03-11T15:52:58.708Z,2.00
2019-03-11T15:55:26.072Z,2.30
2019-03-11T15:57:53.353Z,2.05
2019-03-11T16:00:21.310Z,2.05
2019-03-11T16:02:48.792Z,1.98
2019-03-11T16:05:17.123Z,1.70
2019-03-11T16:07:44.489Z,2.12
2019-03-11T16:10:17.199Z,1.82
2019-03-11T16:12:42.052Z,1.57
2019-03-11T16:15:10.531Z,2.02
2019-03-11T16:17:37.839Z,2.17
2019-03-11T16:20:06.669Z,1.80
2019-03-11T16:22:33.958Z,2.27
2019-03-11T16:25:01.265Z,2.15
2019-03-11T16:27:28.626Z,2.40
2019-03-11T16:29:55.919Z,1.80
2019-03-11T16:32:23.252Z,2.00
2019-03-11T16:34:50.674Z,2.12
2019-03-11T16:37:17.933Z,2.60
2019-03-11T16:39:45.253Z,4.65
2019-03-11T16:42:12.529Z,2.08
2019-03-11T16:44:39.962Z,2.70
2019-03-11T16:47:07.233Z,2.45
2019-03-11T16:49:34.511Z,2.55
2019-03-11T16:52:01.770Z,1.70
2019-03-11T16:54:29.075Z,2.15
2019-03-11T16:56:56.334Z,2.70
2019-03-11T16:59:23.626Z,2.22
2019-03-11T17:01:51.018Z,2.12
2019-03-11T17:04:18.411Z,2.10
2019-03-11T17:06:45.965Z,2.30
2019-03-11T17:09:13.294Z,1.70
2019-03-11T17:11:40.563Z,1.57
2019-03-11T17:14:07.834Z,2.40
2019-03-11T17:16:35.119Z,2.85
2019-03-11T17:19:02.603Z,1.80
2019-03-11T17:21:29.911Z,2.15
2019-03-11T17:23:57.229Z,2.27
2019-03-11T17:26:24.530Z,2.27
2019-03-11T17:28:51.829Z,2.83
2019-03-11T17:31:19.094Z,2.62
2019-03-11T17:33:46.421Z,2.40
2019-03-11T17:36:13.680Z,1.72
2019-03-11T17:38:40.959Z,2.35
2019-03-11T17:41:08.220Z,2.75
2019-03-11T17:43:35.580Z,2.22
2019-03-11T17:46:03.263Z,2.25
2019-03-11T17:48:30.570Z,2.52
2019-03-11T17:50:57.832Z,2.52
2019-03-11T17:53:25.262Z,3.12
2019-03-11T17:55:52.525Z,1.77
2019-03-11T17:58:19.831Z,1.92
2019-03-11T18:00:55.362Z,1.30
2019-03-11T18:03:17.794Z,1.90
2019-03-11T18:05:45.130Z,2.17
2019-03-11T18:08:12.415Z,2.12
2019-03-11T18:10:39.696Z,1.57
2019-03-11T18:13:06.949Z,2.22
2019-03-11T18:15:34.320Z,1.82
2019-03-11T18:18:01.586Z,1.87
2019-03-11T18:20:28.942Z,1.85
2019-03-11T18:22:56.221Z,2.02
2019-03-11T18:25:25.799Z,1.82
2019-03-11T18:27:53.138Z,1.75
2019-03-11T18:30:21.442Z,1.90
2019-03-11T18:32:49.148Z,1.65
2019-03-11T18:35:16.415Z,1.85
2019-03-11T18:37:44.024Z,2.45
2019-03-11T18:40:12.571Z,1.67
2019-03-11T18:42:39.851Z,1.75
2019-03-11T18:45:08.733Z,2.30
2019-03-11T18:47:36.091Z,2.40
2019-03-11T18:50:04.333Z,5.22
2019-03-11T18:52:31.694Z,4.70
2019-03-11T18:54:59.052Z,3.92
2019-03-11T18:57:26.401Z,4.28
2019-03-11T18:59:53.831Z,2.98
2019-03-11T19:02:21.204Z,4.70
2019-03-11T19:04:48.513Z,3.70
2019-03-11T19:07:15.948Z,2.40
2019-03-11T19:09:43.292Z,2.70
2019-03-11T19:12:10.634Z,4.55
2019-03-11T19:14:38.022Z,3.08
2019-03-11T19:17:05.424Z,2.60
2019-03-11T19:19:32.728Z,3.05
2019-03-11T19:22:00.096Z,2.40
2019-03-11T19:24:27.409Z,1.72
2019-03-11T19:26:55.750Z,2.12
2019-03-11T19:29:23.388Z,1.87
2019-03-11T19:31:50.749Z,1.02
2019-03-11T19:34:18.081Z,1.62
2019-03-11T19:36:45.423Z,0.70
2019-03-11T19:39:14.389Z,1.30
2019-03-11T19:41:41.713Z,1.25
2019-03-11T19:44:09.005Z,0.80
2019-03-11T19:46:36.448Z,1.10
2019-03-11T19:49:03.846Z,1.67
2019-03-11T19:51:31.235Z,1.17
2019-03-11T19:53:58.631Z,1.70
2019-03-11T19:56:25.953Z,1.00
2019-03-11T19:58:53.285Z,1.70
2019-03-11T20:01:20.630Z,1.50
2019-03-11T20:03:47.916Z,1.80
2019-03-11T20:06:15.255Z,1.42
2019-03-11T20:08:42.675Z,0.80
2019-03-11T20:11:09.974Z,1.80
2019-03-11T20:13:37.309Z,1.85
2019-03-11T20:16:04.663Z,1.90
2019-03-11T20:18:31.945Z,1.57
2019-03-11T20:20:59.401Z,1.07
2019-03-11T20:23:26.795Z,1.10
2019-03-11T20:25:54.074Z,1.17
2019-03-11T20:28:21.360Z,1.37
2019-03-11T20:30:48.705Z,1.00
2019-03-11T20:33:16.250Z,1.00
2019-03-11T20:35:44.419Z,0.85
2019-03-11T20:38:11.926Z,1.12
2019-03-11T20:40:39.418Z,1.07
2019-03-11T20:43:06.855Z,0.68
2019-03-11T20:45:34.184Z,0.85
2019-03-11T20:48:01.574Z,1.32
2019-03-11T20:50:37.600Z,0.60
2019-03-11T20:52:57.911Z,1.10
2019-03-11T20:55:25.251Z,1.25
2019-03-11T20:57:52.606Z,1.07
2019-03-11T21:00:20.680Z,1.10
2019-03-11T21:02:48.138Z,1.52
2019-03-11T21:05:16.787Z,1.60
2019-03-11T21:07:44.160Z,1.35
2019-03-11T21:10:12.462Z,1.20
2019-03-11T21:12:39.931Z,1.37
2019-03-11T21:15:08.594Z,1.30
2019-03-11T21:17:35.926Z,1.00
2019-03-11T21:20:06.081Z,1.47
2019-03-11T21:22:33.509Z,2.70
2019-03-11T21:25:00.954Z,1.60
2019-03-11T21:27:28.580Z,2.00
2019-03-11T21:29:55.927Z,1.30
2019-03-11T21:32:23.351Z,1.27
2019-03-11T21:34:50.762Z,1.60
2019-03-11T21:37:18.296Z,1.70
2019-03-11T21:39:45.772Z,1.55
2019-03-11T21:42:13.253Z,1.30
2019-03-11T21:44:40.644Z,1.55
2019-03-11T21:47:08.017Z,1.62
2019-03-11T21:49:35.404Z,1.30
2019-03-11T21:52:02.813Z,0.85
2019-03-11T21:54:30.197Z,1.35
2019-03-11T21:56:57.522Z,1.10
2019-03-11T21:59:24.906Z,1.60
2019-03-11T22:01:52.562Z,1.50
2019-03-11T22:04:19.978Z,1.20
2019-03-11T22:06:47.244Z,1.22
2019-03-11T22:09:14.550Z,0.98
2019-03-11T22:11:41.841Z,1.32
2019-03-11T22:14:09.108Z,1.22
2019-03-11T22:16:36.525Z,1.32
2019-03-11T22:19:03.858Z,1.85
2019-03-11T22:21:31.213Z,1.77
2019-03-11T22:23:58.501Z,1.32
2019-03-11T22:26:25.773Z,1.67
2019-03-11T22:28:53.058Z,1.60
2019-03-11T22:31:20.342Z,1.47
2019-03-11T22:33:47.598Z,1.15
2019-03-11T22:36:14.882Z,1.50
2019-03-11T22:38:42.142Z,1.00
2019-03-11T22:41:09.458Z,1.00
2019-03-11T22:43:36.732Z,1.47
2019-03-11T22:46:04.023Z,1.90
2019-03-11T22:48:31.278Z,1.40
2019-03-11T22:50:58.558Z,1.45
2019-03-11T22:53:25.820Z,1.00
2019-03-11T22:55:53.167Z,1.27
2019-03-11T22:58:20.519Z,0.70
2019-03-11T23:00:59.124Z,1.00
2019-03-11T23:03:26.569Z,1.25
2019-03-11T23:05:57.974Z,0.95
2019-03-11T23:08:22.952Z,1.07
2019-03-11T23:10:50.243Z,1.02
2019-03-11T23:13:17.578Z,1.07
2019-03-11T23:15:44.938Z,1.55
2019-03-11T23:18:12.253Z,1.37
2019-03-11T23:20:39.535Z,1.22
2019-03-11T23:23:06.807Z,1.05
2019-03-11T23:25:34.084Z,1.20
2019-03-11T23:28:01.359Z,1.10
2019-03-11T23:30:28.819Z,0.90
2019-03-11T23:32:56.122Z,1.35
2019-03-11T23:35:23.402Z,1.17
2019-03-11T23:37:50.661Z,1.62
2019-03-11T23:40:17.954Z,1.55
2019-03-11T23:42:45.214Z,1.27
2019-03-11T23:45:12.565Z,1.00
2019-03-11T23:47:39.849Z,1.35
2019-03-11T23:50:08.866Z,1.00
2019-03-11T23:52:36.135Z,1.50
2019-03-11T23:55:04.775Z,1.67
2019-03-11T23:57:32.075Z,1.35
2019-03-11T23:59:59.326Z,1.25
